Terminal Aerodrome Forecast
Issued by NWS St Louis, MO

Home | Current Version | Previous Version | Text Only | Print | Product List | Glossary On
Versions: 1 2 3 4 5 6 7 8 9 10 11 12 13 14 15 16 17 18 19 20 21
000
FTUS43 KLSX 180300 AAA
TAFCOU
TAF AMD
KCOU 180300Z 1803/1824 08005KT 1SM BR OVC003
     FM181600 09008KT P6SM BKN012
     FM182000 10007KT P6SM BKN030
      AMD NOT SKED=

USA.gov is the U.S. government's official web portal to all federal, state and local government web resources and services.